Time;durP1;ratioP1;P1;durP2;ratioP2;P2;SDS_P1;SDS_P2;PMS_P1;PMS_P2;Temp;Humidity;BMP_temperature;BMP_pressure;BME280_temperature;BME280_humidity;BME280_pressure;Samples;Min_cycle;Max_cycle;Signal;HPM_P1;HPM_P2
2024/01/25 00:01:26;;;;;;;41.50;5.43;;;10.40;99.90;;;;;;5139953;27;20291;-59
2024/01/25 00:03:52;;;;;;;38.25;5.18;;;10.20;99.90;;;;;;5139804;27;20031;-58
2024/01/25 00:06:18;;;;;;;33.90;5.47;;;10.10;99.90;;;;;;5139638;27;20043;-58
2024/01/25 00:08:43;;;;;;;35.65;5.22;;;10.10;99.90;;;;;;5139616;27;20031;-58
2024/01/25 00:11:09;;;;;;;35.00;5.88;;;10.00;99.90;;;;;;5139579;27;20027;-59
2024/01/25 00:13:35;;;;;;;37.00;6.07;;;9.90;99.90;;;;;;5139434;27;20042;-59
2024/01/25 00:16:01;;;;;;;36.65;6.32;;;9.90;99.90;;;;;;5122026;27;20401;-58
2024/01/25 00:18:29;;;;;;;32.03;5.53;;;9.80;99.90;;;;;;5121537;27;20027;-58
2024/01/25 00:20:55;;;;;;;39.17;5.43;;;9.90;99.90;;;;;;5139550;27;20043;-58
2024/01/25 00:23:21;;;;;;;36.78;6.18;;;9.90;99.90;;;;;;5139307;27;20065;-58
2024/01/25 00:25:47;;;;;;;37.50;5.97;;;9.80;99.90;;;;;;5121301;27;20113;-58
2024/01/25 00:28:13;;;;;;;35.90;5.45;;;9.90;99.90;;;;;;5139146;27;20035;-58
2024/01/25 00:30:39;;;;;;;31.42;5.03;;;9.80;99.90;;;;;;5138961;27;20294;-58
2024/01/25 00:33:05;;;;;;;33.95;4.60;;;9.60;99.90;;;;;;5121161;27;20033;-58
2024/01/25 00:35:31;;;;;;;34.95;5.63;;;9.50;99.90;;;;;;5139020;27;20031;-58
2024/01/25 00:38:01;;;;;;;35.20;5.70;;;9.50;99.90;;;;;;5139078;27;20122;-57
2024/01/25 00:40:27;;;;;;;31.92;5.43;;;9.50;99.90;;;;;;5138915;27;20042;-57
2024/01/25 00:42:53;;;;;;;28.55;4.65;;;9.50;99.90;;;;;;5104050;27;20035;-58
2024/01/25 00:45:20;;;;;;;30.75;4.45;;;9.40;99.90;;;;;;5139122;27;20263;-57
2024/01/25 00:47:47;;;;;;;41.25;6.22;;;9.30;99.90;;;;;;5138818;27;20046;-58
2024/01/25 00:50:13;;;;;;;31.33;4.88;;;9.30;99.90;;;;;;5139024;27;20075;-58
2024/01/25 00:52:39;;;;;;;32.97;6.05;;;9.30;99.90;;;;;;5138724;27;20354;-58
2024/01/25 00:55:06;;;;;;;38.80;5.80;;;9.30;99.90;;;;;;5138849;27;20393;-58
2024/01/25 00:57:32;;;;;;;29.30;5.00;;;9.30;99.90;;;;;;5120981;27;20443;-58
2024/01/25 01:00:00;;;;;;;29.92;4.45;;;9.20;99.90;;;;;;5120755;27;20035;-58
2024/01/25 01:02:30;;;;;;;34.42;5.45;;;9.10;99.90;;;;;;5138540;27;20031;-57
2024/01/25 01:04:58;;;;;;;26.55;4.57;;;9.00;99.90;;;;;;5138546;27;20039;-57
2024/01/25 01:07:24;;;;;;;32.45;4.90;;;9.00;99.90;;;;;;5138470;27;20027;-57
2024/01/25 01:09:49;;;;;;;35.15;5.28;;;9.00;99.90;;;;;;5138397;27;20190;-58
2024/01/25 01:12:16;;;;;;;34.78;5.15;;;8.90;99.90;;;;;;5138445;27;20127;-57
2024/01/25 01:14:42;;;;;;;29.02;5.13;;;9.00;99.90;;;;;;5138318;27;20113;-58
2024/01/25 01:17:08;;;;;;;43.40;5.57;;;8.90;99.90;;;;;;5138507;27;20507;-58
2024/01/25 01:19:34;;;;;;;35.30;5.50;;;8.90;99.90;;;;;;5120523;27;20023;-58
2024/01/25 01:21:59;;;;;;;37.88;5.07;;;8.90;99.90;;;;;;5138165;27;20035;-58
2024/01/25 01:24:25;;;;;;;35.25;5.35;;;8.90;99.90;;;;;;5138173;27;20057;-57
2024/01/25 01:26:51;;;;;;;36.38;4.93;;;8.80;99.90;;;;;;5137722;27;20059;-58
2024/01/25 01:29:18;;;;;;;28.45;4.72;;;8.60;99.90;;;;;;5137954;27;20038;-58
2024/01/25 01:31:44;;;;;;;38.63;5.07;;;8.60;99.90;;;;;;5120195;27;20027;-58
2024/01/25 01:34:10;;;;;;;33.40;5.57;;;8.60;99.90;;;;;;5138113;27;20306;-58
2024/01/25 01:36:35;;;;;;;26.88;5.13;;;8.60;99.90;;;;;;5138003;27;20035;-57
2024/01/25 01:39:01;;;;;;;33.42;5.45;;;8.60;99.90;;;;;;5120204;27;20095;-58
2024/01/25 01:41:27;;;;;;;34.75;4.88;;;8.40;99.90;;;;;;5120105;28;20046;-58
2024/01/25 01:43:54;;;;;;;29.95;4.63;;;8.40;99.90;;;;;;5137966;27;20050;-57
2024/01/25 01:46:40;;;;;;;27.40;4.53;;;8.40;99.90;;;;;;5138228;27;20309;-58
2024/01/25 01:49:14;;;;;;;44.17;5.40;;;8.30;99.90;;;;;;5137910;28;20038;-57
2024/01/25 01:51:43;;;;;;;33.72;5.03;;;8.30;99.90;;;;;;5120237;28;20031;-58
2024/01/25 01:54:10;;;;;;;32.20;5.10;;;8.30;99.90;;;;;;5120069;28;20035;-57
2024/01/25 01:56:36;;;;;;;38.05;4.90;;;8.20;99.90;;;;;;5137817;28;20027;-58
2024/01/25 01:59:04;;;;;;;37.35;5.60;;;8.30;99.90;;;;;;5119830;28;20063;-58
2024/01/25 02:01:31;;;;;;;30.92;5.10;;;8.30;99.90;;;;;;5119904;28;20122;-58
2024/01/25 02:03:57;;;;;;;41.72;5.82;;;8.20;99.90;;;;;;5137890;28;20027;-58
2024/01/25 02:06:24;;;;;;;31.92;5.03;;;8.10;99.90;;;;;;5137744;28;20118;-58
2024/01/25 02:08:51;;;;;;;32.70;4.88;;;8.10;99.90;;;;;;5137731;28;20334;-58
2024/01/25 02:11:17;;;;;;;38.97;5.13;;;8.10;99.90;;;;;;5137957;28;20088;-58
2024/01/25 02:13:44;;;;;;;34.95;5.53;;;8.10;99.90;;;;;;5137939;28;20279;-58
2024/01/25 02:16:10;;;;;;;36.03;5.07;;;8.00;99.90;;;;;;5137625;28;20031;-58
2024/01/25 02:18:36;;;;;;;30.73;5.10;;;8.00;99.90;;;;;;5137615;28;20028;-58
2024/01/25 02:21:01;;;;;;;25.80;5.07;;;8.00;99.90;;;;;;5137850;28;20031;-58
2024/01/25 02:23:27;;;;;;;26.63;4.43;;;8.00;99.90;;;;;;5137627;28;20015;-58
2024/01/25 02:25:53;;;;;;;37.13;5.25;;;8.00;99.90;;;;;;5137545;28;20031;-58
2024/01/25 02:28:22;;;;;;;41.03;5.40;;;8.00;99.90;;;;;;5137589;28;20306;-58
2024/01/25 02:30:48;;;;;;;31.13;4.63;;;7.90;99.90;;;;;;5137670;28;20031;-58
2024/01/25 02:33:13;;;;;;;25.25;4.60;;;7.90;99.90;;;;;;5137652;28;20035;-58
2024/01/25 02:35:39;;;;;;;29.52;4.70;;;7.80;99.90;;;;;;5119626;28;20458;-58
2024/01/25 02:38:05;;;;;;;29.88;5.28;;;7.80;99.90;;;;;;5138968;27;20141;-58
2024/01/25 02:40:31;;;;;;;27.83;4.57;;;7.70;99.90;;;;;;5141572;27;20042;-58
2024/01/25 02:42:56;;;;;;;35.88;5.13;;;7.80;99.90;;;;;;5141512;27;20041;-58
2024/01/25 02:45:23;;;;;;;32.67;5.18;;;7.70;99.90;;;;;;5141323;27;20111;-58
2024/01/25 02:47:49;;;;;;;23.00;4.18;;;7.70;99.90;;;;;;5141527;27;20046;-58
2024/01/25 02:50:15;;;;;;;35.35;4.82;;;7.60;99.90;;;;;;5141261;27;20176;-58
2024/01/25 02:52:41;;;;;;;35.90;5.28;;;7.60;99.90;;;;;;5141111;27;20050;-60
2024/01/25 02:55:08;;;;;;;42.78;6.13;;;7.60;99.90;;;;;;5141165;27;20085;-58
2024/01/25 02:57:34;;;;;;;39.63;5.43;;;7.60;99.90;;;;;;5123255;27;20114;-58
2024/01/25 03:00:00;;;;;;;37.03;5.22;;;7.50;99.90;;;;;;5123137;27;20091;-58
2024/01/25 03:02:25;;;;;;;32.78;5.05;;;7.50;99.90;;;;;;5141155;27;20039;-58
2024/01/25 03:04:52;;;;;;;32.33;4.40;;;7.50;99.90;;;;;;5122905;27;20125;-58
2024/01/25 03:07:17;;;;;;;30.90;4.53;;;7.50;99.90;;;;;;5140830;27;20322;-58
2024/01/25 03:09:43;;;;;;;35.55;5.00;;;7.40;99.90;;;;;;5140713;27;20322;-58
2024/01/25 03:12:09;;;;;;;44.55;5.45;;;7.40;99.90;;;;;;5140759;27;20048;-58
2024/01/25 03:14:35;;;;;;;34.65;5.22;;;7.40;99.90;;;;;;5140708;27;20302;-58
2024/01/25 03:17:01;;;;;;;32.38;4.45;;;7.40;99.90;;;;;;5140683;27;20410;-58
2024/01/25 03:19:27;;;;;;;37.10;5.25;;;7.40;99.90;;;;;;5140627;27;20019;-58
2024/01/25 03:21:54;;;;;;;43.97;5.13;;;7.40;99.90;;;;;;5140703;27;20027;-58
2024/01/25 03:24:24;;;;;;;27.90;4.20;;;7.30;99.90;;;;;;5140587;27;20398;-58
2024/01/25 03:26:50;;;;;;;33.22;4.80;;;7.30;99.90;;;;;;5140483;27;20031;-58
2024/01/25 03:29:16;;;;;;;27.10;3.78;;;7.30;99.90;;;;;;5140354;27;20035;-58
2024/01/25 03:31:42;;;;;;;31.85;4.40;;;7.20;99.90;;;;;;5140308;27;20092;-58
2024/01/25 03:34:07;;;;;;;25.75;4.20;;;7.20;99.90;;;;;;5122583;27;20087;-58
2024/01/25 03:36:33;;;;;;;28.75;4.30;;;7.20;99.90;;;;;;5140300;27;20069;-58
2024/01/25 03:38:59;;;;;;;29.02;4.78;;;7.20;99.90;;;;;;5122405;27;20043;-58
2024/01/25 03:41:25;;;;;;;36.15;4.90;;;7.10;99.90;;;;;;5140178;27;20383;-58
2024/01/25 03:43:51;;;;;;;25.50;4.47;;;7.00;99.90;;;;;;5122228;27;20031;-57
2024/01/25 03:46:17;;;;;;;38.15;5.13;;;7.00;99.90;;;;;;5140240;27;20031;-58
2024/01/25 03:48:43;;;;;;;33.13;5.03;;;6.90;99.90;;;;;;5139524;27;20034;-57
2024/01/25 03:51:09;;;;;;;32.40;4.97;;;6.80;99.90;;;;;;5140252;27;20032;-58
2024/01/25 03:53:35;;;;;;;29.80;4.80;;;6.70;99.90;;;;;;5139955;27;20034;-59
2024/01/25 03:56:00;;;;;;;26.55;5.15;;;6.80;99.90;;;;;;5140146;27;20031;-58
2024/01/25 03:58:26;;;;;;;33.90;5.28;;;6.80;99.90;;;;;;5139778;27;20027;-59
2024/01/25 04:00:53;;;;;;;26.42;4.10;;;6.80;99.90;;;;;;5139695;27;20039;-59
2024/01/25 04:03:18;;;;;;;35.72;5.38;;;6.90;99.90;;;;;;5121893;27;20031;-58
2024/01/25 04:05:44;;;;;;;29.85;4.18;;;6.90;99.90;;;;;;5139736;27;20035;-59
2024/01/25 04:08:10;;;;;;;25.58;4.55;;;6.90;99.90;;;;;;5139761;27;20382;-59
2024/01/25 04:10:36;;;;;;;30.45;4.53;;;6.80;99.90;;;;;;5139492;27;20397;-59
2024/01/25 04:13:04;;;;;;;27.48;4.10;;;6.80;99.90;;;;;;5139635;27;20051;-59
2024/01/25 04:15:30;;;;;;;34.17;5.63;;;6.80;99.90;;;;;;5139555;27;20055;-58
2024/01/25 04:17:56;;;;;;;34.00;4.95;;;6.90;99.90;;;;;;5139740;27;20038;-59
2024/01/25 04:20:22;;;;;;;31.30;5.18;;;6.90;99.90;;;;;;5139525;27;20306;-59
2024/01/25 04:22:48;;;;;;;31.25;4.22;;;6.80;99.90;;;;;;5139429;27;20039;-59
2024/01/25 04:25:14;;;;;;;32.05;5.13;;;6.80;99.90;;;;;;5139357;27;20079;-57
2024/01/25 04:27:40;;;;;;;39.17;5.18;;;6.80;99.90;;;;;;5139276;27;20046;-57
2024/01/25 04:30:07;;;;;;;30.45;5.05;;;6.80;99.90;;;;;;5139217;27;20050;-57
2024/01/25 04:32:33;;;;;;;39.85;5.30;;;6.80;99.90;;;;;;5139225;27;20039;-58
2024/01/25 04:34:59;;;;;;;35.03;5.55;;;6.80;99.90;;;;;;5139175;27;20015;-58
2024/01/25 04:37:25;;;;;;;28.67;5.28;;;6.80;99.90;;;;;;5139216;27;20348;-58
2024/01/25 04:39:51;;;;;;;29.98;5.03;;;6.80;99.90;;;;;;5104420;27;20039;-58
2024/01/25 04:42:17;;;;;;;30.10;4.78;;;6.80;99.90;;;;;;5121170;27;20046;-58
2024/01/25 04:44:43;;;;;;;33.92;4.70;;;6.70;99.90;;;;;;5121344;27;20092;-58
2024/01/25 04:47:09;;;;;;;28.65;4.55;;;6.60;99.90;;;;;;5138989;27;20023;-58
2024/01/25 04:49:35;;;;;;;26.50;4.43;;;6.50;99.90;;;;;;5138855;27;20080;-59
2024/01/25 04:52:01;;;;;;;23.98;4.63;;;6.50;99.90;;;;;;5138853;27;20088;-58
2024/01/25 04:54:27;;;;;;;31.92;4.78;;;6.50;99.90;;;;;;5138793;27;20122;-58
2024/01/25 04:56:54;;;;;;;22.33;4.20;;;6.40;99.90;;;;;;5139140;27;20097;-58
2024/01/25 04:59:20;;;;;;;36.30;5.28;;;6.40;99.90;;;;;;5138649;27;20031;-58
2024/01/25 05:01:46;;;;;;;30.40;4.97;;;6.30;99.90;;;;;;5138112;27;20427;-58
2024/01/25 05:04:11;;;;;;;35.63;5.03;;;6.30;99.90;;;;;;5138698;27;20044;-58
2024/01/25 05:06:37;;;;;;;31.73;4.88;;;6.30;99.90;;;;;;5138982;27;20179;-58
2024/01/25 05:09:04;;;;;;;29.73;5.03;;;6.20;99.90;;;;;;5138456;27;20043;-59
2024/01/25 05:11:29;;;;;;;25.95;4.03;;;6.20;99.90;;;;;;5120513;27;20027;-58
2024/01/25 05:13:55;;;;;;;27.38;4.85;;;6.20;99.90;;;;;;5138502;27;20041;-59
2024/01/25 05:16:21;;;;;;;24.30;4.53;;;6.20;99.90;;;;;;5138420;27;20358;-59
2024/01/25 05:18:47;;;;;;;19.67;4.45;;;6.20;99.90;;;;;;5120381;27;20301;-58
2024/01/25 05:21:13;;;;;;;30.40;4.47;;;6.20;99.90;;;;;;5138487;27;20030;-59
2024/01/25 05:23:38;;;;;;;33.10;4.80;;;6.20;99.90;;;;;;5138289;27;20076;-59
2024/01/25 05:26:06;;;;;;;34.33;5.05;;;6.20;99.90;;;;;;5120667;27;20087;-59
2024/01/25 05:28:31;;;;;;;21.40;4.38;;;6.10;99.90;;;;;;5138503;27;20406;-62
2024/01/25 05:30:57;;;;;;;24.38;4.28;;;6.10;99.90;;;;;;5138196;27;20032;-59
2024/01/25 05:33:23;;;;;;;23.23;3.75;;;6.10;99.90;;;;;;5138374;27;20108;-59
2024/01/25 05:35:50;;;;;;;30.70;5.75;;;6.00;99.90;;;;;;5138216;27;20042;-58
2024/01/25 05:38:16;;;;;;;27.77;5.45;;;6.00;99.90;;;;;;5120034;27;20047;-58
2024/01/25 05:40:42;;;;;;;39.42;5.32;;;6.00;99.90;;;;;;5138119;27;20042;-59
2024/01/25 05:43:08;;;;;;;33.00;5.30;;;6.00;99.90;;;;;;5103110;27;20310;-58
2024/01/25 05:45:34;;;;;;;38.75;6.18;;;6.20;99.90;;;;;;5120234;27;20378;-58
2024/01/25 05:48:00;;;;;;;35.22;5.47;;;6.10;99.90;;;;;;5137957;27;20114;-58
2024/01/25 05:50:25;;;;;;;39.42;5.93;;;6.00;99.90;;;;;;5137909;27;20446;-58
2024/01/25 05:52:51;;;;;;;40.13;6.05;;;6.10;99.90;;;;;;5137863;28;20042;-58
2024/01/25 05:55:17;;;;;;;27.95;4.40;;;6.10;99.90;;;;;;5137914;28;20038;-58
2024/01/25 05:57:46;;;;;;;41.20;5.63;;;6.10;99.90;;;;;;5137782;28;20042;-59
2024/01/25 06:00:13;;;;;;;28.00;5.35;;;6.10;99.90;;;;;;5137919;28;20047;-58
2024/01/25 06:02:39;;;;;;;32.80;5.22;;;6.20;99.90;;;;;;5137702;28;20283;-59
2024/01/25 06:05:04;;;;;;;35.65;6.03;;;6.10;99.90;;;;;;5137751;28;20039;-58
2024/01/25 06:07:30;;;;;;;34.90;5.68;;;6.00;99.90;;;;;;5137562;28;20042;-58
2024/01/25 06:09:56;;;;;;;42.83;6.47;;;5.90;99.90;;;;;;5119693;28;20040;-58
2024/01/25 06:12:22;;;;;;;32.97;5.32;;;5.80;99.90;;;;;;5139687;27;20043;-59
2024/01/25 06:14:49;;;;;;;43.60;6.32;;;5.70;99.90;;;;;;5142320;27;20433;-59
2024/01/25 06:17:15;;;;;;;36.83;6.40;;;5.70;99.90;;;;;;5123565;27;20047;-58
2024/01/25 06:19:40;;;;;;;38.08;6.43;;;5.60;99.90;;;;;;5124112;27;20027;-58
2024/01/25 06:22:06;;;;;;;31.63;6.15;;;5.60;99.90;;;;;;5141678;27;20027;-58
2024/01/25 06:24:32;;;;;;;38.05;5.75;;;5.60;99.90;;;;;;5141793;27;20042;-58
2024/01/25 06:26:58;;;;;;;40.85;6.18;;;5.70;99.90;;;;;;5141618;27;20054;-58
2024/01/25 06:29:24;;;;;;;43.17;6.28;;;5.80;99.90;;;;;;5141547;27;20100;-58
2024/01/25 06:31:49;;;;;;;31.90;5.97;;;5.70;99.90;;;;;;5123599;27;20386;-58
2024/01/25 06:34:15;;;;;;;37.83;7.05;;;5.80;99.90;;;;;;5141391;27;20031;-58
2024/01/25 06:36:44;;;;;;;32.63;5.75;;;5.70;99.90;;;;;;5141481;27;20402;-58
2024/01/25 06:39:10;;;;;;;34.72;6.22;;;5.80;99.90;;;;;;5141262;27;20066;-58
2024/01/25 06:41:36;;;;;;;34.40;6.82;;;5.80;99.90;;;;;;5123617;27;20314;-58
2024/01/25 06:44:02;;;;;;;39.67;6.85;;;5.80;99.90;;;;;;5141338;27;20035;-58
2024/01/25 06:46:28;;;;;;;40.05;6.18;;;5.80;99.90;;;;;;5141348;27;20050;-58
2024/01/25 06:48:54;;;;;;;33.28;6.22;;;5.90;99.90;;;;;;5141279;27;20026;-58
2024/01/25 06:51:20;;;;;;;30.15;5.72;;;5.80;99.90;;;;;;5141264;27;20039;-58
2024/01/25 06:53:46;;;;;;;37.78;6.57;;;5.80;99.90;;;;;;5141202;27;20302;-59
2024/01/25 06:56:12;;;;;;;41.00;6.53;;;5.90;99.90;;;;;;5141176;27;20103;-58
2024/01/25 06:58:38;;;;;;;29.83;5.93;;;5.80;99.90;;;;;;5140974;27;20064;-58
2024/01/25 07:01:04;;;;;;;30.27;6.38;;;5.80;99.90;;;;;;5140867;27;20043;-59
2024/01/25 07:03:30;;;;;;;33.85;5.85;;;5.90;99.90;;;;;;5140767;27;20072;-59
2024/01/25 07:05:56;;;;;;;31.10;5.50;;;5.90;99.90;;;;;;5140883;27;20039;-59
2024/01/25 07:08:21;;;;;;;40.78;6.28;;;5.90;99.90;;;;;;5123042;27;20441;-58
2024/01/25 07:10:47;;;;;;;34.83;6.25;;;5.90;99.90;;;;;;5123177;27;20046;-58
2024/01/25 07:13:13;;;;;;;33.67;6.60;;;5.80;99.90;;;;;;5140771;27;20023;-61
2024/01/25 07:15:39;;;;;;;41.50;6.45;;;5.80;99.90;;;;;;5122937;27;20106;-58
2024/01/25 07:18:05;;;;;;;35.83;6.82;;;5.80;99.90;;;;;;5140935;27;20081;-58
2024/01/25 07:20:30;;;;;;;37.85;5.38;;;5.80;99.90;;;;;;5140768;27;20035;-58
2024/01/25 07:22:57;;;;;;;35.58;6.50;;;5.90;99.90;;;;;;5140105;27;20310;-57
2024/01/25 07:25:22;;;;;;;38.47;6.38;;;6.10;99.90;;;;;;5140153;27;20071;-59
2024/01/25 07:27:49;;;;;;;47.10;6.28;;;6.20;99.90;;;;;;5122502;27;20366;-58
2024/01/25 07:30:15;;;;;;;34.30;6.38;;;6.10;99.90;;;;;;5140377;27;20039;-59
2024/01/25 07:32:42;;;;;;;45.30;6.78;;;5.90;99.90;;;;;;5140392;27;20152;-58
2024/01/25 07:35:09;;;;;;;39.25;6.40;;;5.90;99.90;;;;;;5140261;27;20049;-59
2024/01/25 07:37:36;;;;;;;30.02;5.88;;;5.90;99.90;;;;;;5122238;27;20042;-58
2024/01/25 07:40:03;;;;;;;29.35;5.32;;;5.90;99.90;;;;;;5140285;27;20042;-58
2024/01/25 07:42:29;;;;;;;38.47;5.88;;;5.90;99.90;;;;;;5140319;27;20030;-58
2024/01/25 07:44:55;;;;;;;33.83;5.57;;;5.80;99.90;;;;;;5122214;27;20031;-58
2024/01/25 07:47:21;;;;;;;30.48;6.07;;;5.90;99.90;;;;;;5140012;27;20110;-57
2024/01/25 07:49:47;;;;;;;36.42;5.40;;;5.90;99.90;;;;;;5140003;27;20362;-58
2024/01/25 07:52:13;;;;;;;33.30;5.95;;;5.90;99.90;;;;;;5122085;27;20043;-58
2024/01/25 07:54:39;;;;;;;34.25;6.80;;;6.00;99.90;;;;;;5105086;27;20352;-58
2024/01/25 07:57:05;;;;;;;35.03;6.13;;;6.00;99.90;;;;;;5139960;27;20029;-58
2024/01/25 07:59:31;;;;;;;35.90;6.13;;;6.10;99.90;;;;;;5139932;27;20279;-59
2024/01/25 08:01:56;;;;;;;30.23;6.28;;;6.10;99.90;;;;;;5122105;27;20038;-58
2024/01/25 08:04:22;;;;;;;30.88;6.95;;;6.10;99.90;;;;;;5139781;27;20027;-58
2024/01/25 08:06:48;;;;;;;33.42;5.90;;;6.10;99.90;;;;;;5139821;27;20038;-59
2024/01/25 08:09:14;;;;;;;37.53;6.50;;;6.10;99.90;;;;;;5121667;27;20031;-58
2024/01/25 08:11:40;;;;;;;33.95;6.28;;;6.10;99.90;;;;;;5139548;27;20034;-58
2024/01/25 08:14:05;;;;;;;31.60;5.70;;;6.10;99.90;;;;;;5139432;27;20046;-58
2024/01/25 08:16:31;;;;;;;32.88;5.78;;;6.10;99.90;;;;;;5139362;27;20023;-59
2024/01/25 08:18:58;;;;;;;34.95;6.07;;;6.10;99.90;;;;;;5139269;27;20037;-58
2024/01/25 08:21:24;;;;;;;30.58;6.30;;;6.10;99.90;;;;;;5121469;27;20043;-58
2024/01/25 08:23:50;;;;;;;36.08;6.30;;;6.10;99.90;;;;;;5139394;27;20023;-58
2024/01/25 08:26:16;;;;;;;47.78;7.97;;;6.20;99.90;;;;;;5139442;27;20045;-58
2024/01/25 08:28:45;;;;;;;34.25;6.63;;;6.30;99.90;;;;;;5121398;27;20039;-57
2024/01/25 08:31:11;;;;;;;43.63;7.03;;;6.30;99.90;;;;;;5121367;27;20409;-59
2024/01/25 08:33:43;;;;;;;36.10;6.88;;;6.30;99.90;;;;;;5139143;27;20019;-57
2024/01/25 08:36:10;;;;;;;39.78;5.93;;;6.30;99.90;;;;;;5139655;27;20047;-58
2024/01/25 08:38:35;;;;;;;34.63;6.22;;;6.30;99.90;;;;;;5138931;27;20426;-58
2024/01/25 08:41:01;;;;;;;35.35;6.43;;;6.30;99.90;;;;;;5139166;27;20110;-56
2024/01/25 08:43:27;;;;;;;40.53;7.53;;;6.40;99.90;;;;;;5120999;27;20046;-58
2024/01/25 08:45:53;;;;;;;35.15;7.03;;;6.40;99.90;;;;;;5139000;27;20042;-58
2024/01/25 08:48:19;;;;;;;41.83;6.75;;;6.30;99.90;;;;;;5121073;27;20034;-58
2024/01/25 08:50:45;;;;;;;39.47;7.45;;;6.40;99.90;;;;;;5138790;27;20039;-58
2024/01/25 08:53:11;;;;;;;32.53;7.13;;;6.50;99.90;;;;;;5138824;27;20024;-58
2024/01/25 08:55:36;;;;;;;39.47;6.95;;;6.50;99.90;;;;;;5138768;27;20035;-58
2024/01/25 08:58:02;;;;;;;37.22;7.50;;;6.50;99.90;;;;;;5138533;27;20016;-58
2024/01/25 09:00:28;;;;;;;29.92;6.55;;;6.50;99.90;;;;;;5120801;27;20077;-59
2024/01/25 09:02:54;;;;;;;35.63;7.13;;;6.60;99.90;;;;;;5138526;27;20046;-59
2024/01/25 09:05:20;;;;;;;32.35;7.38;;;6.60;99.90;;;;;;5138673;27;20301;-57
2024/01/25 09:07:47;;;;;;;38.97;8.52;;;6.60;99.90;;;;;;5138518;27;20035;-56
2024/01/25 09:10:13;;;;;;;36.15;7.07;;;6.70;99.90;;;;;;5138419;27;20031;-57
2024/01/25 09:12:41;;;;;;;28.75;7.10;;;6.70;99.90;;;;;;5138368;27;20046;-57
2024/01/25 09:15:08;;;;;;;40.25;8.25;;;6.80;99.90;;;;;;5138375;27;20024;-57
2024/01/25 09:17:34;;;;;;;34.90;7.57;;;6.90;99.90;;;;;;5120578;27;20031;-57
2024/01/25 09:20:00;;;;;;;31.70;7.50;;;6.90;99.90;;;;;;5138273;27;20031;-57
2024/01/25 09:22:25;;;;;;;34.72;8.48;;;7.00;99.90;;;;;;5138160;27;20031;-57
2024/01/25 09:24:52;;;;;;;43.13;7.72;;;6.90;99.90;;;;;;5138237;27;20035;-58
2024/01/25 09:27:18;;;;;;;38.42;8.35;;;6.90;99.90;;;;;;5138078;27;20035;-58
2024/01/25 09:29:44;;;;;;;39.42;8.77;;;7.00;99.90;;;;;;5120138;27;20035;-58
2024/01/25 09:32:10;;;;;;;37.60;8.93;;;7.00;99.90;;;;;;5138086;27;20406;-58
2024/01/25 09:34:37;;;;;;;36.80;10.13;;;7.10;99.90;;;;;;5120293;27;20051;-57
2024/01/25 09:37:03;;;;;;;31.33;9.27;;;7.20;99.90;;;;;;5137897;27;20026;-58
2024/01/25 09:39:29;;;;;;;37.35;9.27;;;7.20;99.90;;;;;;5137933;27;20058;-58
2024/01/25 09:41:55;;;;;;;33.35;10.48;;;7.30;99.90;;;;;;5137924;27;20123;-57
2024/01/25 09:44:21;;;;;;;40.50;11.00;;;7.20;99.90;;;;;;5120332;27;20039;-57
2024/01/25 09:46:47;;;;;;;42.13;11.48;;;7.10;99.90;;;;;;5137531;27;20046;-58
2024/01/25 09:49:13;;;;;;;32.80;11.70;;;7.10;99.90;;;;;;5138128;27;20035;-59
2024/01/25 09:51:41;;;;;;;26.13;10.32;;;7.00;99.90;;;;;;5137860;28;20035;-58
2024/01/25 09:54:07;;;;;;;34.08;11.60;;;6.90;99.90;;;;;;5138184;28;20046;-57
2024/01/25 09:56:34;;;;;;;27.52;11.18;;;6.90;99.90;;;;;;5119824;28;20046;-58
2024/01/25 09:59:00;;;;;;;32.90;11.85;;;6.90;99.90;;;;;;5137802;28;20031;-57
2024/01/25 10:01:26;;;;;;;27.38;11.18;;;7.00;99.90;;;;;;5137797;28;20036;-57
2024/01/25 10:03:52;;;;;;;37.10;11.68;;;6.90;99.90;;;;;;5137683;28;20027;-58
2024/01/25 10:06:18;;;;;;;33.80;12.32;;;6.90;99.90;;;;;;5137852;28;20035;-57
2024/01/25 10:08:45;;;;;;;40.38;14.10;;;7.00;99.90;;;;;;5119756;28;20286;-57
2024/01/25 10:11:14;;;;;;;44.45;15.40;;;7.10;99.90;;;;;;5120076;28;20040;-57
2024/01/25 10:13:48;;;;;;;43.10;14.32;;;7.20;99.90;;;;;;5137667;28;20359;-57
2024/01/25 10:16:20;;;;;;;41.53;14.95;;;7.30;99.90;;;;;;5137653;28;20106;-58
2024/01/25 10:18:47;;;;;;;39.92;13.13;;;7.20;99.90;;;;;;5137491;28;20069;-57
2024/01/25 10:21:14;;;;;;;33.30;12.75;;;7.20;99.90;;;;;;5119714;28;20298;-57
2024/01/25 10:23:41;;;;;;;36.33;12.35;;;7.10;99.90;;;;;;5137499;28;20023;-57
2024/01/25 10:26:10;;;;;;;31.67;11.90;;;7.00;99.90;;;;;;5137499;28;20031;-57
2024/01/25 10:28:36;;;;;;;32.78;11.90;;;7.00;99.90;;;;;;5137434;28;20027;-58
2024/01/25 10:31:04;;;;;;;28.48;11.70;;;7.00;99.90;;;;;;5119718;28;20115;-58
2024/01/25 10:33:31;;;;;;;27.60;11.55;;;7.00;99.90;;;;;;5119493;28;20054;-58
2024/01/25 10:36:02;;;;;;;33.90;12.77;;;7.10;99.90;;;;;;5137400;28;20033;-58
2024/01/25 10:38:36;;;;;;;24.65;10.93;;;7.20;99.90;;;;;;5137373;28;20368;-58
2024/01/25 10:41:05;;;;;;;34.40;12.80;;;7.30;99.90;;;;;;5137295;28;20098;-57
2024/01/25 10:43:31;;;;;;;27.70;11.93;;;7.30;99.90;;;;;;5137420;28;20294;-58
2024/01/25 10:45:58;;;;;;;29.27;11.48;;;7.50;99.90;;;;;;5137422;28;20087;-58
2024/01/25 10:48:31;;;;;;;34.88;12.80;;;7.60;99.90;;;;;;5137299;28;20076;-57
2024/01/25 10:50:59;;;;;;;30.80;12.68;;;7.70;99.90;;;;;;5137201;28;20306;-57
2024/01/25 10:53:26;;;;;;;39.50;13.32;;;7.50;99.90;;;;;;5137151;28;20053;-57
2024/01/25 10:55:52;;;;;;;39.55;14.07;;;7.50;99.90;;;;;;5137328;28;20028;-57
2024/01/25 10:58:18;;;;;;;39.40;13.90;;;7.50;99.90;;;;;;5137276;27;20027;-58
2024/01/25 11:00:58;;;;;;;39.55;14.13;;;7.50;99.90;;;;;;5140921;27;20043;-58
2024/01/25 11:03:33;;;;;;;41.15;14.60;;;7.60;99.90;;;;;;5140924;27;20035;-57
2024/01/25 11:06:12;;;;;;;41.80;15.30;;;7.70;99.90;;;;;;5141145;27;20374;-57
2024/01/25 11:08:38;;;;;;;47.35;15.13;;;7.80;99.90;;;;;;5122898;27;20062;-57
2024/01/25 11:11:10;;;;;;;45.58;15.82;;;7.90;99.90;;;;;;5141006;27;20355;-57
2024/01/25 11:13:39;;;;;;;46.25;16.17;;;7.90;99.90;;;;;;5140843;27;20035;-57
2024/01/25 11:16:16;;;;;;;46.47;15.60;;;7.90;99.90;;;;;;5140671;27;20023;-57
2024/01/25 11:18:55;;;;;;;50.03;16.13;;;7.90;99.90;;;;;;5140676;27;20023;-57
2024/01/25 11:21:41;;;;;;;46.10;15.45;;;8.00;99.90;;;;;;5140710;27;20118;-58
2024/01/25 11:24:13;;;;;;;44.05;15.82;;;8.20;99.90;;;;;;5140354;27;20061;-57
2024/01/25 11:26:39;;;;;;;50.85;16.55;;;8.30;99.90;;;;;;5140599;27;20031;-57
2024/01/25 11:29:05;;;;;;;53.17;16.17;;;8.40;99.90;;;;;;5140353;27;20049;-58
2024/01/25 11:31:31;;;;;;;48.97;16.05;;;8.50;99.90;;;;;;5140379;27;20103;-57
2024/01/25 11:34:01;;;;;;;44.28;15.02;;;8.40;99.90;;;;;;5140382;27;20084;-57
2024/01/25 11:36:28;;;;;;;47.25;16.15;;;8.50;99.90;;;;;;5140252;27;20035;-57
2024/01/25 11:38:53;;;;;;;47.45;16.85;;;8.50;99.90;;;;;;5118800;28;20039;-58
2024/01/25 11:41:20;;;;;;;50.50;17.30;;;8.60;99.90;;;;;;5119064;28;20040;-58
2024/01/25 11:43:48;;;;;;;53.13;16.65;;;8.60;99.90;;;;;;5118711;28;20050;-57
2024/01/25 11:46:14;;;;;;;45.13;16.50;;;8.60;99.90;;;;;;5118748;28;20118;-57
2024/01/25 11:48:41;;;;;;;59.45;18.88;;;8.50;99.90;;;;;;5119447;28;20402;-57
2024/01/25 11:51:10;;;;;;;54.47;18.90;;;8.50;99.90;;;;;;5119441;28;20116;-57
2024/01/25 11:53:37;;;;;;;52.15;18.88;;;8.50;99.90;;;;;;5119489;27;20329;-57
2024/01/25 11:56:09;;;;;;;65.25;19.25;;;8.70;99.90;;;;;;5119534;27;20102;-58
2024/01/25 11:58:36;;;;;;;;;;;8.80;99.90;;;;;;5119877;28;20038;-58
2024/01/25 12:01:07;;;;;;;48.58;17.83;;;8.80;99.90;;;;;;5119669;28;20241;-58
2024/01/25 12:03:36;;;;;;;53.43;16.77;;;8.80;99.90;;;;;;5118623;28;20356;-57
2024/01/25 12:06:04;;;;;;;51.42;17.48;;;8.90;99.90;;;;;;5119030;28;20298;-57
2024/01/25 12:08:31;;;;;;;52.10;17.00;;;8.90;99.90;;;;;;5119033;28;20031;-57
2024/01/25 12:11:08;;;;;;;52.72;16.35;;;8.80;99.90;;;;;;5118696;28;20093;-57
2024/01/25 12:13:43;;;;;;;43.08;14.98;;;8.90;99.90;;;;;;5119100;28;20093;-57
2024/01/25 12:16:10;;;;;;;52.47;16.38;;;8.90;99.90;;;;;;5119104;27;20379;-57
2024/01/25 12:18:38;;;;;;;50.50;17.38;;;9.10;99.90;;;;;;5118889;28;20114;-57
2024/01/25 12:21:05;;;;;;;48.45;16.60;;;9.10;99.90;;;;;;5118919;27;20028;-57
2024/01/25 12:23:38;;;;;;;47.85;16.50;;;9.10;99.90;;;;;;5118870;28;20365;-58
2024/01/25 12:26:06;;;;;;;43.88;15.68;;;9.10;99.90;;;;;;5118950;28;20115;-58
2024/01/25 12:28:33;;;;;;;51.35;15.35;;;9.20;99.90;;;;;;5118720;28;20089;-58
2024/01/25 12:31:00;;;;;;;49.78;15.15;;;9.30;99.90;;;;;;5118664;28;20027;-58
2024/01/25 12:33:26;;;;;;;35.90;13.82;;;9.30;99.90;;;;;;5118620;28;20114;-58
2024/01/25 12:35:53;;;;;;;46.33;14.25;;;9.40;99.90;;;;;;5118732;28;20059;-58
2024/01/25 12:38:20;;;;;;;47.90;15.73;;;9.40;99.90;;;;;;5127417;27;20493;-58
2024/01/25 12:40:48;;;;;;;40.80;14.43;;;9.60;99.90;;;;;;5138997;27;20035;-58
2024/01/25 12:43:15;;;;;;;38.40;12.68;;;9.80;99.90;;;;;;5139005;27;20034;-55